MET'MAP v2.0
soon released !

Expected late october,
this new version will be
more efficient, smarter,
and hosted on a brand new
server x3 powerfull...
...and still free !


Not compatible ?
Try the mobile version !

LOG IN : | Subscribe | Disclaimer | Who is Orbifly ? |
ICAO code :
Legend : VFR Marginal VFR IFR Intensive IFR Very Intensive IFR
Visi :
Ceiling :
>= 8 km
>= 3000ft
5 to 8 km
1000 to 3000 ft
1500m to 5 km
500 to 1000 ft
800 to 1500m
200 to 500 ft
< 800m
< 200 ft

METAR - LEBA Córdoba Airport - 25 Feb 2021 16:54 UTC - Data Source NOAA   


- Airport Elevation : 297 ft
- IATA code : ODB
- No reported NOTAMs.


LEBA - Córdoba Airport

Latest METAR recorded : 2015/08/11 08:00 LEBA 110800Z VRB02KT CAVOK 24/19 Q1015
TAF TAF LEBA
Valid from the 25 at 15:00 until the 26 at 15:00 UTC


251400Z 2515/2615 27004KT 9999 FEW040 TX20/2615Z TN08/2607Z
PROB30
TEMPO 2606/2610 08010KT

Source NOAA


MET'MAP, your aeronautical weather chart ! - Copyright ORBIFLY December 2007

Programming & Development : Alexandra Zaïnal
Co-Developer : Marc-Olivier Méhu
Technical & hardware support : Manuel Goepfert
Concept & Financing : Baudouin d'Aumeries